Bateman, Wisconsin
Current Conditions -  °F | °C
As of 10:56 AM on Friday 21 Nov 2014 (Local Time) from KEAU Reporting Station
Clear Clear  
Wind Chill:   Ceiling: Unl
Heat Index: 18°   Visibility: 10mi
Dew Point:   Wind: 14mph
Humidity: 57%   Direction: 180°S
Pressure: 30.23"   Gusts: NA
Location:  44.9743°N, 91.4379°W
Report Text: KEAU 211656Z 18012KT 10SM CLR M08/M15 A3023 RMK AO2 SLP256 T10781150
Loading
Personal Weather Stations






























Interactive Weather Map New forecast layout! Learn more

10-Day Weather Forecast

Advertisements
Track Severe Weather on mobile